sensor_id;sensor_type;location;lat;lon;timestamp;temperature;humidity
17066;DHT22;23120;52.336;21.182;2023-09-07T00:00:12;16.10;97.70
17066;DHT22;23120;52.336;21.182;2023-09-07T00:02:39;16.10;97.90
17066;DHT22;23120;52.336;21.182;2023-09-07T00:05:07;16.10;98.20
17066;DHT22;23120;52.336;21.182;2023-09-07T00:07:35;16.00;98.30
17066;DHT22;23120;52.336;21.182;2023-09-07T00:10:03;16.10;98.20
17066;DHT22;23120;52.336;21.182;2023-09-07T00:12:31;16.00;98.30
17066;DHT22;23120;52.336;21.182;2023-09-07T00:14:58;15.90;98.50
17066;DHT22;23120;52.336;21.182;2023-09-07T00:17:26;15.90;98.40
17066;DHT22;23120;52.336;21.182;2023-09-07T00:19:52;15.90;98.70
17066;DHT22;23120;52.336;21.182;2023-09-07T00:22:24;15.90;98.60
17066;DHT22;23120;52.336;21.182;2023-09-07T00:24:51;15.80;98.30
17066;DHT22;23120;52.336;21.182;2023-09-07T00:27:18;15.80;98.60
17066;DHT22;23120;52.336;21.182;2023-09-07T00:29:45;15.80;98.60
17066;DHT22;23120;52.336;21.182;2023-09-07T00:32:12;15.80;98.30
17066;DHT22;23120;52.336;21.182;2023-09-07T00:34:38;15.70;98.70
17066;DHT22;23120;52.336;21.182;2023-09-07T00:37:05;15.70;98.50
17066;DHT22;23120;52.336;21.182;2023-09-07T00:39:33;15.70;98.80
17066;DHT22;23120;52.336;21.182;2023-09-07T00:42:00;15.60;99.10
17066;DHT22;23120;52.336;21.182;2023-09-07T00:44:27;15.50;99.10
17066;DHT22;23120;52.336;21.182;2023-09-07T00:46:54;15.60;98.60
17066;DHT22;23120;52.336;21.182;2023-09-07T00:49:23;15.60;99.00
17066;DHT22;23120;52.336;21.182;2023-09-07T00:51:50;15.50;99.10
17066;DHT22;23120;52.336;21.182;2023-09-07T00:54:18;15.50;99.10
17066;DHT22;23120;52.336;21.182;2023-09-07T00:56:47;15.50;99.10
17066;DHT22;23120;52.336;21.182;2023-09-07T00:59:14;15.50;98.90
17066;DHT22;23120;52.336;21.182;2023-09-07T01:01:41;15.50;99.10
17066;DHT22;23120;52.336;21.182;2023-09-07T01:04:09;15.40;99.00
17066;DHT22;23120;52.336;21.182;2023-09-07T01:06:39;15.40;99.20
17066;DHT22;23120;52.336;21.182;2023-09-07T01:09:10;15.30;99.40
17066;DHT22;23120;52.336;21.182;2023-09-07T01:11:39;15.30;99.50
17066;DHT22;23120;52.336;21.182;2023-09-07T01:14:07;15.30;99.90
17066;DHT22;23120;52.336;21.182;2023-09-07T01:16:34;15.20;99.80
17066;DHT22;23120;52.336;21.182;2023-09-07T01:19:06;15.20;99.60
17066;DHT22;23120;52.336;21.182;2023-09-07T01:21:35;15.20;99.60
17066;DHT22;23120;52.336;21.182;2023-09-07T01:24:05;15.20;99.60
17066;DHT22;23120;52.336;21.182;2023-09-07T01:26:33;15.10;99.50
17066;DHT22;23120;52.336;21.182;2023-09-07T01:29:01;15.10;99.60
17066;DHT22;23120;52.336;21.182;2023-09-07T01:31:28;15.10;99.50
17066;DHT22;23120;52.336;21.182;2023-09-07T01:33:54;15.10;99.50
17066;DHT22;23120;52.336;21.182;2023-09-07T01:36:21;15.10;99.60
17066;DHT22;23120;52.336;21.182;2023-09-07T01:38:49;15.10;99.40
17066;DHT22;23120;52.336;21.182;2023-09-07T01:41:16;15.00;99.30
17066;DHT22;23120;52.336;21.182;2023-09-07T01:43:43;15.00;99.80
17066;DHT22;23120;52.336;21.182;2023-09-07T01:46:10;15.00;99.40
17066;DHT22;23120;52.336;21.182;2023-09-07T01:48:37;14.90;99.90
17066;DHT22;23120;52.336;21.182;2023-09-07T01:51:04;14.90;99.90
17066;DHT22;23120;52.336;21.182;2023-09-07T01:53:30;14.90;99.90
17066;DHT22;23120;52.336;21.182;2023-09-07T01:55:59;14.90;99.90
17066;DHT22;23120;52.336;21.182;2023-09-07T01:58:25;14.80;99.90
17066;DHT22;23120;52.336;21.182;2023-09-07T02:00:56;14.80;99.90
17066;DHT22;23120;52.336;21.182;2023-09-07T02:03:23;14.80;99.80
17066;DHT22;23120;52.336;21.182;2023-09-07T02:05:51;14.80;99.90
17066;DHT22;23120;52.336;21.182;2023-09-07T02:08:18;14.80;99.90
17066;DHT22;23120;52.336;21.182;2023-09-07T02:10:45;14.70;99.80
17066;DHT22;23120;52.336;21.182;2023-09-07T02:13:13;14.70;99.90
17066;DHT22;23120;52.336;21.182;2023-09-07T02:15:40;14.80;99.90
17066;DHT22;23120;52.336;21.182;2023-09-07T02:18:07;14.70;99.90
17066;DHT22;23120;52.336;21.182;2023-09-07T02:20:34;14.70;99.90
17066;DHT22;23120;52.336;21.182;2023-09-07T02:23:00;14.70;99.90
17066;DHT22;23120;52.336;21.182;2023-09-07T02:25:28;14.60;99.90
17066;DHT22;23120;52.336;21.182;2023-09-07T02:27:57;14.60;99.90
17066;DHT22;23120;52.336;21.182;2023-09-07T02:30:25;14.50;99.90
17066;DHT22;23120;52.336;21.182;2023-09-07T02:32:51;14.50;99.90
17066;DHT22;23120;52.336;21.182;2023-09-07T02:35:22;14.50;99.90
17066;DHT22;23120;52.336;21.182;2023-09-07T02:37:48;14.40;99.90
17066;DHT22;23120;52.336;21.182;2023-09-07T02:40:16;14.40;99.90
17066;DHT22;23120;52.336;21.182;2023-09-07T02:42:42;14.40;99.90
17066;DHT22;23120;52.336;21.182;2023-09-07T02:45:10;14.40;99.90
17066;DHT22;23120;52.336;21.182;2023-09-07T02:47:39;14.40;99.90
17066;DHT22;23120;52.336;21.182;2023-09-07T02:50:06;14.40;99.90
17066;DHT22;23120;52.336;21.182;2023-09-07T02:52:33;14.30;99.90
17066;DHT22;23120;52.336;21.182;2023-09-07T02:55:00;14.40;99.90
17066;DHT22;23120;52.336;21.182;2023-09-07T02:57:28;14.30;99.90
17066;DHT22;23120;52.336;21.182;2023-09-07T02:59:55;14.30;99.90
17066;DHT22;23120;52.336;21.182;2023-09-07T03:02:22;14.30;99.90
17066;DHT22;23120;52.336;21.182;2023-09-07T03:04:54;14.30;99.90
17066;DHT22;23120;52.336;21.182;2023-09-07T03:07:24;14.20;99.90
17066;DHT22;23120;52.336;21.182;2023-09-07T03:09:52;14.20;99.90
17066;DHT22;23120;52.336;21.182;2023-09-07T03:12:19;14.20;99.90
17066;DHT22;23120;52.336;21.182;2023-09-07T03:14:46;14.20;99.90
17066;DHT22;23120;52.336;21.182;2023-09-07T03:17:14;14.20;99.90
17066;DHT22;23120;52.336;21.182;2023-09-07T03:19:42;14.10;99.90
17066;DHT22;23120;52.336;21.182;2023-09-07T03:22:11;14.10;99.90
17066;DHT22;23120;52.336;21.182;2023-09-07T03:24:38;14.10;99.90
17066;DHT22;23120;52.336;21.182;2023-09-07T03:27:05;14.10;99.90
17066;DHT22;23120;52.336;21.182;2023-09-07T03:29:33;14.00;99.90
17066;DHT22;23120;52.336;21.182;2023-09-07T03:32:02;14.10;99.90
17066;DHT22;23120;52.336;21.182;2023-09-07T03:34:29;14.00;99.90
17066;DHT22;23120;52.336;21.182;2023-09-07T03:36:56;14.00;99.90
17066;DHT22;23120;52.336;21.182;2023-09-07T03:39:24;14.00;99.90
17066;DHT22;23120;52.336;21.182;2023-09-07T03:41:51;13.90;99.90
17066;DHT22;23120;52.336;21.182;2023-09-07T03:44:19;13.90;99.90
17066;DHT22;23120;52.336;21.182;2023-09-07T03:46:46;14.00;99.90
17066;DHT22;23120;52.336;21.182;2023-09-07T03:49:13;13.90;99.90
17066;DHT22;23120;52.336;21.182;2023-09-07T03:51:39;13.90;99.90
17066;DHT22;23120;52.336;21.182;2023-09-07T03:54:06;13.90;99.90
17066;DHT22;23120;52.336;21.182;2023-09-07T03:56:34;13.90;99.90
17066;DHT22;23120;52.336;21.182;2023-09-07T03:59:01;13.80;99.90
17066;DHT22;23120;52.336;21.182;2023-09-07T04:01:29;13.80;99.90
17066;DHT22;23120;52.336;21.182;2023-09-07T04:03:56;13.80;99.90
17066;DHT22;23120;52.336;21.182;2023-09-07T04:06:23;13.80;99.90
17066;DHT22;23120;52.336;21.182;2023-09-07T04:08:50;13.70;99.90
17066;DHT22;23120;52.336;21.182;2023-09-07T04:11:17;13.70;99.90
17066;DHT22;23120;52.336;21.182;2023-09-07T04:13:45;13.70;99.90
17066;DHT22;23120;52.336;21.182;2023-09-07T04:16:12;13.70;99.90
17066;DHT22;23120;52.336;21.182;2023-09-07T04:18:38;13.70;99.90
17066;DHT22;23120;52.336;21.182;2023-09-07T04:21:07;13.60;99.90
17066;DHT22;23120;52.336;21.182;2023-09-07T04:23:35;13.60;99.90
17066;DHT22;23120;52.336;21.182;2023-09-07T04:26:09;13.60;99.90
17066;DHT22;23120;52.336;21.182;2023-09-07T04:28:36;13.60;99.90
17066;DHT22;23120;52.336;21.182;2023-09-07T04:31:05;13.60;99.90
17066;DHT22;23120;52.336;21.182;2023-09-07T04:33:33;13.60;99.90
17066;DHT22;23120;52.336;21.182;2023-09-07T04:36:07;13.60;99.90
17066;DHT22;23120;52.336;21.182;2023-09-07T04:38:35;13.60;99.90
17066;DHT22;23120;52.336;21.182;2023-09-07T04:41:06;13.60;99.90
17066;DHT22;23120;52.336;21.182;2023-09-07T04:43:33;13.60;99.90
17066;DHT22;23120;52.336;21.182;2023-09-07T04:46:22;13.60;99.90
17066;DHT22;23120;52.336;21.182;2023-09-07T04:48:49;13.50;99.90
17066;DHT22;23120;52.336;21.182;2023-09-07T04:51:16;13.50;99.90
17066;DHT22;23120;52.336;21.182;2023-09-07T04:53:43;13.60;99.90
17066;DHT22;23120;52.336;21.182;2023-09-07T04:56:11;13.60;99.90
17066;DHT22;23120;52.336;21.182;2023-09-07T04:58:38;13.60;99.90
17066;DHT22;23120;52.336;21.182;2023-09-07T05:01:06;13.60;99.90
17066;DHT22;23120;52.336;21.182;2023-09-07T05:03:35;13.70;99.90
17066;DHT22;23120;52.336;21.182;2023-09-07T05:06:04;13.70;99.90
17066;DHT22;23120;52.336;21.182;2023-09-07T05:08:31;13.70;99.90
17066;DHT22;23120;52.336;21.182;2023-09-07T05:10:59;13.70;99.90
17066;DHT22;23120;52.336;21.182;2023-09-07T05:13:27;13.70;99.90
17066;DHT22;23120;52.336;21.182;2023-09-07T05:16:13;13.70;99.90
17066;DHT22;23120;52.336;21.182;2023-09-07T05:18:42;13.80;99.90
17066;DHT22;23120;52.336;21.182;2023-09-07T05:21:13;13.90;99.90
17066;DHT22;23120;52.336;21.182;2023-09-07T05:23:40;13.90;99.90
17066;DHT22;23120;52.336;21.182;2023-09-07T05:26:07;13.90;99.90
17066;DHT22;23120;52.336;21.182;2023-09-07T05:28:35;13.90;99.90
17066;DHT22;23120;52.336;21.182;2023-09-07T05:31:01;13.90;99.90
17066;DHT22;23120;52.336;21.182;2023-09-07T05:33:29;14.00;99.90
17066;DHT22;23120;52.336;21.182;2023-09-07T05:35:57;14.00;99.90
17066;DHT22;23120;52.336;21.182;2023-09-07T05:38:24;14.00;99.90
17066;DHT22;23120;52.336;21.182;2023-09-07T05:40:52;14.10;99.90
17066;DHT22;23120;52.336;21.182;2023-09-07T05:43:20;14.10;99.90
17066;DHT22;23120;52.336;21.182;2023-09-07T05:45:47;14.10;99.90
17066;DHT22;23120;52.336;21.182;2023-09-07T05:48:15;14.20;99.90
17066;DHT22;23120;52.336;21.182;2023-09-07T05:50:43;14.20;99.90
17066;DHT22;23120;52.336;21.182;2023-09-07T05:53:12;14.30;99.90
17066;DHT22;23120;52.336;21.182;2023-09-07T05:55:38;14.40;99.90
17066;DHT22;23120;52.336;21.182;2023-09-07T05:58:07;14.40;99.90
17066;DHT22;23120;52.336;21.182;2023-09-07T06:00:37;14.40;99.90
17066;DHT22;23120;52.336;21.182;2023-09-07T06:03:05;14.40;99.90
17066;DHT22;23120;52.336;21.182;2023-09-07T06:05:33;14.50;99.90
17066;DHT22;23120;52.336;21.182;2023-09-07T06:08:01;14.60;99.90
17066;DHT22;23120;52.336;21.182;2023-09-07T06:10:30;14.70;99.90
17066;DHT22;23120;52.336;21.182;2023-09-07T06:12:58;14.80;99.90
17066;DHT22;23120;52.336;21.182;2023-09-07T06:15:26;14.90;99.90
17066;DHT22;23120;52.336;21.182;2023-09-07T06:17:53;15.00;99.90
17066;DHT22;23120;52.336;21.182;2023-09-07T06:20:21;15.10;99.90
17066;DHT22;23120;52.336;21.182;2023-09-07T06:22:48;15.10;99.90
17066;DHT22;23120;52.336;21.182;2023-09-07T06:25:15;15.20;99.90
17066;DHT22;23120;52.336;21.182;2023-09-07T06:27:43;15.20;99.90
17066;DHT22;23120;52.336;21.182;2023-09-07T06:30:11;15.40;99.90
17066;DHT22;23120;52.336;21.182;2023-09-07T06:32:39;15.40;99.90
17066;DHT22;23120;52.336;21.182;2023-09-07T06:35:08;15.50;99.90
17066;DHT22;23120;52.336;21.182;2023-09-07T06:37:34;15.70;99.90
17066;DHT22;23120;52.336;21.182;2023-09-07T06:40:07;15.70;99.90
17066;DHT22;23120;52.336;21.182;2023-09-07T06:42:35;15.90;99.90
17066;DHT22;23120;52.336;21.182;2023-09-07T06:45:08;16.00;99.90
17066;DHT22;23120;52.336;21.182;2023-09-07T06:47:35;16.10;99.90
17066;DHT22;23120;52.336;21.182;2023-09-07T06:50:03;16.20;99.90
17066;DHT22;23120;52.336;21.182;2023-09-07T06:52:31;16.30;99.90
17066;DHT22;23120;52.336;21.182;2023-09-07T06:54:58;16.40;99.90
17066;DHT22;23120;52.336;21.182;2023-09-07T06:57:25;16.50;99.90
17066;DHT22;23120;52.336;21.182;2023-09-07T06:59:54;16.60;99.90
17066;DHT22;23120;52.336;21.182;2023-09-07T07:02:22;16.70;99.90
17066;DHT22;23120;52.336;21.182;2023-09-07T07:04:49;16.90;99.90
17066;DHT22;23120;52.336;21.182;2023-09-07T07:07:17;17.00;99.90
17066;DHT22;23120;52.336;21.182;2023-09-07T07:09:44;17.10;99.90
17066;DHT22;23120;52.336;21.182;2023-09-07T07:12:11;17.20;99.90
17066;DHT22;23120;52.336;21.182;2023-09-07T07:14:39;17.30;99.90
17066;DHT22;23120;52.336;21.182;2023-09-07T07:17:05;17.50;99.90
17066;DHT22;23120;52.336;21.182;2023-09-07T07:19:35;17.60;99.90
17066;DHT22;23120;52.336;21.182;2023-09-07T07:22:03;17.80;99.90
17066;DHT22;23120;52.336;21.182;2023-09-07T07:24:32;17.90;99.90
17066;DHT22;23120;52.336;21.182;2023-09-07T07:26:59;18.10;99.90
17066;DHT22;23120;52.336;21.182;2023-09-07T07:29:27;18.30;99.90
17066;DHT22;23120;52.336;21.182;2023-09-07T07:31:54;18.50;99.90
17066;DHT22;23120;52.336;21.182;2023-09-07T07:34:21;18.70;99.90
17066;DHT22;23120;52.336;21.182;2023-09-07T07:36:49;18.90;99.90
17066;DHT22;23120;52.336;21.182;2023-09-07T07:50:01;19.90;99.90
17066;DHT22;23120;52.336;21.182;2023-09-07T07:52:30;20.10;99.90
17066;DHT22;23120;52.336;21.182;2023-09-07T07:54:57;20.20;99.90
17066;DHT22;23120;52.336;21.182;2023-09-07T07:57:46;20.40;99.90
17066;DHT22;23120;52.336;21.182;2023-09-07T08:00:47;20.60;99.90
17066;DHT22;23120;52.336;21.182;2023-09-07T08:03:19;20.90;99.90
17066;DHT22;23120;52.336;21.182;2023-09-07T08:05:47;21.00;99.90
17066;DHT22;23120;52.336;21.182;2023-09-07T08:08:16;21.20;99.90
17066;DHT22;23120;52.336;21.182;2023-09-07T08:14:37;21.50;99.90
17066;DHT22;23120;52.336;21.182;2023-09-07T08:17:05;21.90;99.90
17066;DHT22;23120;52.336;21.182;2023-09-07T08:19:33;22.00;99.90
17066;DHT22;23120;52.336;21.182;2023-09-07T08:22:01;22.20;99.90
17066;DHT22;23120;52.336;21.182;2023-09-07T08:24:30;22.30;99.90
17066;DHT22;23120;52.336;21.182;2023-09-07T08:26:57;22.60;99.90
17066;DHT22;23120;52.336;21.182;2023-09-07T08:29:28;22.80;99.90
17066;DHT22;23120;52.336;21.182;2023-09-07T08:31:57;22.90;99.90
17066;DHT22;23120;52.336;21.182;2023-09-07T08:34:25;23.10;99.90
17066;DHT22;23120;52.336;21.182;2023-09-07T08:36:52;23.20;99.90
17066;DHT22;23120;52.336;21.182;2023-09-07T08:39:22;23.40;99.90
17066;DHT22;23120;52.336;21.182;2023-09-07T08:46:20;23.80;99.90
17066;DHT22;23120;52.336;21.182;2023-09-07T08:48:50;24.10;99.90
17066;DHT22;23120;52.336;21.182;2023-09-07T08:51:18;24.30;99.90
17066;DHT22;23120;52.336;21.182;2023-09-07T08:53:45;24.40;99.90
17066;DHT22;23120;52.336;21.182;2023-09-07T08:56:49;24.60;99.90
17066;DHT22;23120;52.336;21.182;2023-09-07T09:00:00;24.70;99.70
17066;DHT22;23120;52.336;21.182;2023-09-07T09:43:59;27.10;96.50
17066;DHT22;23120;52.336;21.182;2023-09-07T09:46:29;27.30;94.80
17066;DHT22;23120;52.336;21.182;2023-09-07T09:49:00;27.40;94.90
17066;DHT22;23120;52.336;21.182;2023-09-07T09:51:50;27.50;95.20
17066;DHT22;23120;52.336;21.182;2023-09-07T12:21:16;30.20;83.30
17066;DHT22;23120;52.336;21.182;2023-09-07T12:24:08;30.20;83.30
17066;DHT22;23120;52.336;21.182;2023-09-07T13:39:18;31.60;74.50
17066;DHT22;23120;52.336;21.182;2023-09-07T13:42:00;31.60;74.50
17066;DHT22;23120;52.336;21.182;2023-09-07T13:44:27;31.70;74.40
17066;DHT22;23120;52.336;21.182;2023-09-07T13:46:54;31.70;71.60
17066;DHT22;23120;52.336;21.182;2023-09-07T13:49:21;31.80;75.40
17066;DHT22;23120;52.336;21.182;2023-09-07T13:52:06;31.80;76.00
17066;DHT22;23120;52.336;21.182;2023-09-07T13:55:31;31.80;78.50
17066;DHT22;23120;52.336;21.182;2023-09-07T13:58:34;31.80;76.00
17066;DHT22;23120;52.336;21.182;2023-09-07T16:18:54;33.30;67.30
17066;DHT22;23120;52.336;21.182;2023-09-07T16:21:21;33.20;68.10
17066;DHT22;23120;52.336;21.182;2023-09-07T16:23:50;33.00;68.30
17066;DHT22;23120;52.336;21.182;2023-09-07T16:26:17;32.80;68.40
17066;DHT22;23120;52.336;21.182;2023-09-07T16:28:44;32.50;68.00
17066;DHT22;23120;52.336;21.182;2023-09-07T16:31:11;32.30;68.10
17066;DHT22;23120;52.336;21.182;2023-09-07T16:33:38;32.00;69.00
17066;DHT22;23120;52.336;21.182;2023-09-07T16:36:06;31.80;68.90
17066;DHT22;23120;52.336;21.182;2023-09-07T16:38:33;31.60;69.60
17066;DHT22;23120;52.336;21.182;2023-09-07T16:41:03;31.40;69.60
17066;DHT22;23120;52.336;21.182;2023-09-07T16:43:30;31.20;69.80
17066;DHT22;23120;52.336;21.182;2023-09-07T16:45:58;31.00;70.20
17066;DHT22;23120;52.336;21.182;2023-09-07T16:48:25;30.80;70.70
17066;DHT22;23120;52.336;21.182;2023-09-07T16:50:53;30.50;70.60
17066;DHT22;23120;52.336;21.182;2023-09-07T16:53:22;30.30;70.50
17066;DHT22;23120;52.336;21.182;2023-09-07T16:55:49;30.10;71.10
17066;DHT22;23120;52.336;21.182;2023-09-07T16:58:18;30.00;71.20
17066;DHT22;23120;52.336;21.182;2023-09-07T17:00:45;29.70;71.10
17066;DHT22;23120;52.336;21.182;2023-09-07T17:03:12;29.60;71.50
17066;DHT22;23120;52.336;21.182;2023-09-07T17:05:39;29.40;71.60
17066;DHT22;23120;52.336;21.182;2023-09-07T17:08:06;29.10;71.80
17066;DHT22;23120;52.336;21.182;2023-09-07T17:10:58;28.90;72.10
17066;DHT22;23120;52.336;21.182;2023-09-07T17:13:26;28.70;72.40
17066;DHT22;23120;52.336;21.182;2023-09-07T17:15:53;28.40;72.50
17066;DHT22;23120;52.336;21.182;2023-09-07T17:18:20;28.30;73.20
17066;DHT22;23120;52.336;21.182;2023-09-07T18:03:48;25.20;77.50
17066;DHT22;23120;52.336;21.182;2023-09-07T18:06:49;25.00;77.60
17066;DHT22;23120;52.336;21.182;2023-09-07T18:10:40;24.90;77.70
17066;DHT22;23120;52.336;21.182;2023-09-07T18:14:00;24.70;78.50
17066;DHT22;23120;52.336;21.182;2023-09-07T18:17:21;24.50;78.60
17066;DHT22;23120;52.336;21.182;2023-09-07T18:20:40;24.30;78.80
17066;DHT22;23120;52.336;21.182;2023-09-07T18:23:18;24.20;79.30
17066;DHT22;23120;52.336;21.182;2023-09-07T18:29:16;23.90;79.80
17066;DHT22;23120;52.336;21.182;2023-09-07T18:31:57;23.80;79.90
17066;DHT22;23120;52.336;21.182;2023-09-07T18:35:17;23.70;80.20
17066;DHT22;23120;52.336;21.182;2023-09-07T18:38:16;23.60;80.00
17066;DHT22;23120;52.336;21.182;2023-09-07T18:44:58;23.30;80.80
17066;DHT22;23120;52.336;21.182;2023-09-07T18:48:10;23.20;81.00
17066;DHT22;23120;52.336;21.182;2023-09-07T18:51:02;23.10;81.40
17066;DHT22;23120;52.336;21.182;2023-09-07T18:53:58;23.10;81.40
17066;DHT22;23120;52.336;21.182;2023-09-07T19:00:40;22.80;82.30
17066;DHT22;23120;52.336;21.182;2023-09-07T19:03:52;22.70;82.80
17066;DHT22;23120;52.336;21.182;2023-09-07T19:06:20;22.60;82.70
17066;DHT22;23120;52.336;21.182;2023-09-07T19:09:06;22.50;83.40
17066;DHT22;23120;52.336;21.182;2023-09-07T19:11:33;22.40;84.10
17066;DHT22;23120;52.336;21.182;2023-09-07T19:14:01;22.40;83.10
17066;DHT22;23120;52.336;21.182;2023-09-07T19:16:31;22.40;83.30
17066;DHT22;23120;52.336;21.182;2023-09-07T19:19:12;22.30;83.90
17066;DHT22;23120;52.336;21.182;2023-09-07T19:21:39;22.20;84.20
17066;DHT22;23120;52.336;21.182;2023-09-07T19:24:19;22.10;84.00
17066;DHT22;23120;52.336;21.182;2023-09-07T19:26:46;22.10;84.40
17066;DHT22;23120;52.336;21.182;2023-09-07T19:29:14;22.00;84.40
17066;DHT22;23120;52.336;21.182;2023-09-07T19:31:41;22.00;84.70
17066;DHT22;23120;52.336;21.182;2023-09-07T19:34:08;21.90;84.50
17066;DHT22;23120;52.336;21.182;2023-09-07T19:36:36;21.80;85.00
17066;DHT22;23120;52.336;21.182;2023-09-07T19:39:03;21.80;85.20
17066;DHT22;23120;52.336;21.182;2023-09-07T19:41:32;21.80;85.50
17066;DHT22;23120;52.336;21.182;2023-09-07T19:44:00;21.60;85.30
17066;DHT22;23120;52.336;21.182;2023-09-07T19:46:27;21.60;85.40
17066;DHT22;23120;52.336;21.182;2023-09-07T19:48:54;21.60;85.40
17066;DHT22;23120;52.336;21.182;2023-09-07T19:51:22;21.50;86.00
17066;DHT22;23120;52.336;21.182;2023-09-07T19:53:49;21.50;85.90
17066;DHT22;23120;52.336;21.182;2023-09-07T19:56:18;21.40;85.60
17066;DHT22;23120;52.336;21.182;2023-09-07T19:58:48;21.40;86.60
17066;DHT22;23120;52.336;21.182;2023-09-07T20:01:16;21.30;86.80
17066;DHT22;23120;52.336;21.182;2023-09-07T20:03:44;21.20;86.50
17066;DHT22;23120;52.336;21.182;2023-09-07T20:06:11;21.20;86.80
17066;DHT22;23120;52.336;21.182;2023-09-07T20:08:39;21.10;87.40
17066;DHT22;23120;52.336;21.182;2023-09-07T20:11:07;21.10;87.90
17066;DHT22;23120;52.336;21.182;2023-09-07T20:13:34;21.00;87.70
17066;DHT22;23120;52.336;21.182;2023-09-07T20:16:02;20.80;87.70
17066;DHT22;23120;52.336;21.182;2023-09-07T20:18:30;20.80;88.20
17066;DHT22;23120;52.336;21.182;2023-09-07T20:20:56;20.80;89.00
17066;DHT22;23120;52.336;21.182;2023-09-07T20:23:23;20.70;88.70
17066;DHT22;23120;52.336;21.182;2023-09-07T20:25:53;20.60;89.20
17066;DHT22;23120;52.336;21.182;2023-09-07T20:28:20;20.40;90.10
17066;DHT22;23120;52.336;21.182;2023-09-07T20:30:46;20.40;90.20
17066;DHT22;23120;52.336;21.182;2023-09-07T20:33:14;20.40;89.70
17066;DHT22;23120;52.336;21.182;2023-09-07T20:35:43;20.40;90.20
17066;DHT22;23120;52.336;21.182;2023-09-07T20:38:10;20.30;90.20
17066;DHT22;23120;52.336;21.182;2023-09-07T20:40:37;20.30;90.20
17066;DHT22;23120;52.336;21.182;2023-09-07T20:43:04;20.20;90.20
17066;DHT22;23120;52.336;21.182;2023-09-07T20:45:37;20.10;90.40
17066;DHT22;23120;52.336;21.182;2023-09-07T20:48:04;20.10;90.40
17066;DHT22;23120;52.336;21.182;2023-09-07T20:50:33;20.10;90.40
17066;DHT22;23120;52.336;21.182;2023-09-07T20:53:00;20.00;90.60
17066;DHT22;23120;52.336;21.182;2023-09-07T20:55:26;19.90;90.80
17066;DHT22;23120;52.336;21.182;2023-09-07T20:57:53;19.90;90.80
17066;DHT22;23120;52.336;21.182;2023-09-07T21:00:20;19.80;90.90
17066;DHT22;23120;52.336;21.182;2023-09-07T21:02:47;19.80;90.90
17066;DHT22;23120;52.336;21.182;2023-09-07T21:05:14;19.70;91.00
17066;DHT22;23120;52.336;21.182;2023-09-07T21:07:42;19.70;90.80
17066;DHT22;23120;52.336;21.182;2023-09-07T21:10:09;19.60;91.30
17066;DHT22;23120;52.336;21.182;2023-09-07T21:12:37;19.60;90.80
17066;DHT22;23120;52.336;21.182;2023-09-07T21:15:06;19.50;90.80
17066;DHT22;23120;52.336;21.182;2023-09-07T21:17:33;19.50;91.20
17066;DHT22;23120;52.336;21.182;2023-09-07T21:20:00;19.40;91.40
17066;DHT22;23120;52.336;21.182;2023-09-07T21:22:27;19.40;91.10
17066;DHT22;23120;52.336;21.182;2023-09-07T21:24:55;19.30;91.30
17066;DHT22;23120;52.336;21.182;2023-09-07T21:27:22;19.30;91.60
17066;DHT22;23120;52.336;21.182;2023-09-07T21:29:49;19.20;91.70
17066;DHT22;23120;52.336;21.182;2023-09-07T21:32:16;19.20;91.60
17066;DHT22;23120;52.336;21.182;2023-09-07T21:34:43;19.10;91.70
17066;DHT22;23120;52.336;21.182;2023-09-07T21:37:09;19.10;91.70
17066;DHT22;23120;52.336;21.182;2023-09-07T21:39:36;19.10;91.80
17066;DHT22;23120;52.336;21.182;2023-09-07T21:42:07;19.10;92.20
17066;DHT22;23120;52.336;21.182;2023-09-07T21:44:34;19.10;91.90
17066;DHT22;23120;52.336;21.182;2023-09-07T21:47:01;18.90;92.10
17066;DHT22;23120;52.336;21.182;2023-09-07T21:49:28;18.90;92.40
17066;DHT22;23120;52.336;21.182;2023-09-07T21:51:55;18.90;92.40
17066;DHT22;23120;52.336;21.182;2023-09-07T21:54:21;18.90;92.40
17066;DHT22;23120;52.336;21.182;2023-09-07T21:56:48;18.80;92.60
17066;DHT22;23120;52.336;21.182;2023-09-07T21:59:16;18.80;92.60
17066;DHT22;23120;52.336;21.182;2023-09-07T22:01:43;18.70;92.70
17066;DHT22;23120;52.336;21.182;2023-09-07T22:04:11;18.70;92.40
17066;DHT22;23120;52.336;21.182;2023-09-07T22:06:38;18.70;92.60
17066;DHT22;23120;52.336;21.182;2023-09-07T22:09:05;18.60;92.60
17066;DHT22;23120;52.336;21.182;2023-09-07T22:11:32;18.60;92.90
17066;DHT22;23120;52.336;21.182;2023-09-07T22:13:59;18.50;92.80
17066;DHT22;23120;52.336;21.182;2023-09-07T22:16:27;18.50;93.00
17066;DHT22;23120;52.336;21.182;2023-09-07T22:18:54;18.40;93.00
17066;DHT22;23120;52.336;21.182;2023-09-07T22:21:21;18.40;93.10
17066;DHT22;23120;52.336;21.182;2023-09-07T22:23:50;18.40;93.30
17066;DHT22;23120;52.336;21.182;2023-09-07T22:26:17;18.30;93.40
17066;DHT22;23120;52.336;21.182;2023-09-07T22:28:44;18.20;93.50
17066;DHT22;23120;52.336;21.182;2023-09-07T22:31:11;18.20;93.50
17066;DHT22;23120;52.336;21.182;2023-09-07T22:33:39;18.20;93.50
17066;DHT22;23120;52.336;21.182;2023-09-07T22:36:06;18.20;93.70
17066;DHT22;23120;52.336;21.182;2023-09-07T22:38:33;18.20;93.70
17066;DHT22;23120;52.336;21.182;2023-09-07T22:41:00;18.10;93.90
17066;DHT22;23120;52.336;21.182;2023-09-07T22:43:26;18.00;93.90
17066;DHT22;23120;52.336;21.182;2023-09-07T22:45:53;18.00;94.10
17066;DHT22;23120;52.336;21.182;2023-09-07T22:48:20;18.00;94.10
17066;DHT22;23120;52.336;21.182;2023-09-07T22:50:49;18.00;94.10
17066;DHT22;23120;52.336;21.182;2023-09-07T22:53:16;17.90;94.40
17066;DHT22;23120;52.336;21.182;2023-09-07T22:55:47;17.80;94.30
17066;DHT22;23120;52.336;21.182;2023-09-07T22:58:15;17.70;94.80
17066;DHT22;23120;52.336;21.182;2023-09-07T23:00:43;17.70;94.70
17066;DHT22;23120;52.336;21.182;2023-09-07T23:03:10;17.70;95.00
17066;DHT22;23120;52.336;21.182;2023-09-07T23:05:37;17.70;95.00
17066;DHT22;23120;52.336;21.182;2023-09-07T23:08:06;17.60;94.90
17066;DHT22;23120;52.336;21.182;2023-09-07T23:10:33;17.60;95.10
17066;DHT22;23120;52.336;21.182;2023-09-07T23:13:00;17.60;94.90
17066;DHT22;23120;52.336;21.182;2023-09-07T23:15:27;17.60;94.80
17066;DHT22;23120;52.336;21.182;2023-09-07T23:17:55;17.60;94.90
17066;DHT22;23120;52.336;21.182;2023-09-07T23:20:22;17.50;95.20
17066;DHT22;23120;52.336;21.182;2023-09-07T23:22:50;17.50;95.50
17066;DHT22;23120;52.336;21.182;2023-09-07T23:25:18;17.40;95.40